Albion, Ohio
Current Conditions -  °F | °C
As of 12:56 AM on Wednesday 22 Oct 2014 (Local Time) from KBJJ Reporting Station
Light Rain Light Rain  
Wind Chill: 41°   Ceiling: 800
Heat Index: 47°   Visibility: 4mi
Dew Point: 44°   Wind: 14mph
Humidity: 90%   Direction: 350°N
Pressure: 30.11"   Gusts: NA
Location:  40.9441°N, 82.1006°W
Report Text: KBJJ 220456Z AUTO 35012KT 4SM -RA BR OVC008 08/07 A3011 RMK AO2 RAB46 CIG 006V011 SLP200 P0000 T00830067 401170078 TSNO
Loading
Personal Weather Stations






























Interactive Weather Map New forecast layout! Learn more

10-Day Weather Forecast

Advertisements
Track Severe Weather on mobile